createdAt,value
2018-10-18T00:00:04.602Z,34.07
2018-10-18T00:00:18.692Z,34.07
2018-10-18T00:00:31.149Z,34.07
2018-10-18T00:00:43.570Z,34.07
2018-10-18T00:00:55.998Z,34.07
2018-10-18T00:01:08.565Z,34.07
2018-10-18T00:01:20.967Z,34.07
2018-10-18T00:01:33.363Z,34.07
2018-10-18T00:01:45.910Z,32.08
2018-10-18T00:01:58.534Z,32.08
2018-10-18T00:02:12.101Z,32.08
2018-10-18T00:02:25.490Z,32.08
2018-10-18T00:02:37.869Z,32.08
2018-10-18T00:02:50.275Z,32.08
2018-10-18T00:03:02.680Z,32.08
2018-10-18T00:03:15.736Z,32.08
2018-10-18T00:03:29.988Z,32.08
2018-10-18T00:03:43.070Z,32.08
2018-10-18T00:03:55.497Z,32.08
2018-10-18T00:04:08.052Z,32.08
2018-10-18T00:04:20.453Z,32.08
2018-10-18T00:04:32.843Z,32.08
2018-10-18T00:04:45.233Z,32.08
2018-10-18T00:04:57.628Z,32.08
2018-10-18T00:05:10.062Z,32.08
2018-10-18T00:05:22.482Z,32.08
2018-10-18T00:05:34.869Z,32.08
2018-10-18T00:05:47.352Z,32.08
2018-10-18T00:06:00.108Z,32.08
2018-10-18T00:06:13.872Z,32.08
2018-10-18T00:06:27.151Z,32.08
2018-10-18T00:06:39.550Z,32.08
2018-10-18T00:06:51.930Z,32.08
2018-10-18T00:07:04.306Z,32.08
2018-10-18T00:07:16.696Z,32.08
2018-10-18T00:07:29.092Z,32.08
2018-10-18T00:07:41.473Z,32.08
2018-10-18T00:07:53.973Z,32.08
2018-10-18T00:08:06.935Z,32.08
2018-10-18T00:08:20.618Z,32.08
2018-10-18T00:08:33.009Z,32.08
2018-10-18T00:08:45.461Z,32.08
2018-10-18T00:08:57.905Z,32.08
2018-10-18T00:09:10.295Z,32.08
2018-10-18T00:09:22.677Z,32.08
2018-10-18T00:09:35.124Z,32.08
2018-10-18T00:09:47.628Z,32.08
2018-10-18T00:10:00.095Z,32.08
2018-10-18T00:10:12.601Z,32.08
2018-10-18T00:10:24.992Z,32.08
2018-10-18T00:10:37.394Z,32.08
2018-10-18T00:10:49.893Z,32.08
2018-10-18T00:11:02.331Z,32.08
2018-10-18T00:11:14.749Z,32.08
2018-10-18T00:11:27.142Z,32.08
2018-10-18T00:11:39.541Z,32.08
2018-10-18T00:11:51.967Z,30.46
2018-10-18T00:12:05.136Z,30.46
2018-10-18T00:12:19.047Z,30.46
2018-10-18T00:12:31.439Z,30.46
2018-10-18T00:12:43.975Z,30.46
2018-10-18T00:12:56.351Z,30.46
2018-10-18T00:13:08.862Z,30.46
2018-10-18T00:13:21.292Z,30.46
2018-10-18T00:13:33.687Z,30.46
2018-10-18T00:13:46.069Z,30.46
2018-10-18T00:13:58.735Z,30.46
2018-10-18T00:14:12.478Z,30.46
2018-10-18T00:14:25.574Z,30.46
2018-10-18T00:14:37.967Z,30.46
2018-10-18T00:14:50.429Z,30.46
2018-10-18T00:15:02.933Z,30.46
2018-10-18T00:15:15.411Z,30.46
2018-10-18T00:15:27.849Z,30.46
2018-10-18T00:15:40.302Z,30.46
2018-10-18T00:15:52.701Z,30.46
2018-10-18T00:16:05.088Z,30.46
2018-10-18T00:16:17.499Z,30.46
2018-10-18T00:16:29.932Z,30.46
2018-10-18T00:16:42.478Z,30.46
2018-10-18T00:16:54.893Z,30.46
2018-10-18T00:17:07.381Z,30.46
2018-10-18T00:17:19.937Z,30.46
2018-10-18T00:17:32.413Z,30.46
2018-10-18T00:17:44.796Z,30.46
2018-10-18T00:17:57.511Z,30.46
2018-10-18T00:18:11.148Z,30.46
2018-10-18T00:18:24.595Z,30.46
2018-10-18T00:18:36.974Z,30.46
2018-10-18T00:18:49.338Z,30.46
2018-10-18T00:19:01.744Z,30.46
2018-10-18T00:19:14.323Z,30.46
2018-10-18T00:19:26.769Z,30.46
2018-10-18T00:19:39.147Z,30.46
2018-10-18T00:19:51.578Z,30.46
2018-10-18T00:20:04.793Z,30.46
2018-10-18T00:20:18.598Z,30.46
2018-10-18T00:20:31.040Z,30.46
2018-10-18T00:20:43.443Z,30.46
2018-10-18T00:20:55.832Z,30.46
2018-10-18T00:21:08.221Z,30.46
2018-10-18T00:21:20.659Z,30.46
2018-10-18T00:21:33.487Z,30.46
2018-10-18T00:21:45.868Z,31.15
2018-10-18T00:21:58.249Z,31.15
2018-10-18T00:22:10.863Z,31.15
2018-10-18T00:22:23.245Z,31.15
2018-10-18T00:22:35.625Z,31.15
2018-10-18T00:22:48.159Z,31.15
2018-10-18T00:23:00.532Z,31.15
2018-10-18T00:23:12.928Z,31.15
2018-10-18T00:23:25.324Z,31.15
2018-10-18T00:23:37.751Z,31.15
2018-10-18T00:23:50.217Z,31.15
2018-10-18T00:24:03.355Z,31.15
2018-10-18T00:24:17.332Z,31.15
2018-10-18T00:24:30.248Z,31.15
2018-10-18T00:24:42.631Z,31.15
2018-10-18T00:24:55.081Z,31.15
2018-10-18T00:25:07.563Z,31.15
2018-10-18T00:25:19.947Z,31.15
2018-10-18T00:25:32.474Z,31.15
2018-10-18T00:25:44.861Z,31.15
2018-10-18T00:25:57.526Z,31.15
2018-10-18T00:26:11.214Z,31.15
2018-10-18T00:26:24.551Z,31.15
2018-10-18T00:26:36.939Z,31.15
2018-10-18T00:26:49.493Z,31.15
2018-10-18T00:27:02.144Z,31.15
2018-10-18T00:27:14.700Z,31.15
2018-10-18T00:27:27.168Z,31.15
2018-10-18T00:27:39.638Z,31.15
2018-10-18T00:27:52.097Z,31.15
2018-10-18T00:28:04.498Z,31.15
2018-10-18T00:28:16.910Z,31.15
2018-10-18T00:28:29.305Z,31.15
2018-10-18T00:28:41.710Z,31.15
2018-10-18T00:28:54.106Z,31.15
2018-10-18T00:29:06.554Z,31.15
2018-10-18T00:29:18.938Z,31.15
2018-10-18T00:29:31.353Z,31.15
2018-10-18T00:29:43.740Z,31.15
2018-10-18T00:29:56.419Z,31.15
2018-10-18T00:30:09.814Z,31.15
2018-10-18T00:30:23.648Z,31.15
2018-10-18T00:30:36.033Z,31.15
2018-10-18T00:30:48.428Z,31.15
2018-10-18T00:31:00.829Z,31.15
2018-10-18T00:31:13.243Z,31.15
2018-10-18T00:31:25.638Z,31.15
2018-10-18T00:31:38.034Z,31.15
2018-10-18T00:31:50.612Z,35.31
2018-10-18T00:32:03.784Z,35.31
2018-10-18T00:32:17.514Z,35.31
2018-10-18T00:32:29.914Z,35.31
2018-10-18T00:32:42.322Z,35.31
2018-10-18T00:32:54.742Z,35.31
2018-10-18T00:33:07.128Z,35.31
2018-10-18T00:33:19.547Z,35.31
2018-10-18T00:33:31.941Z,35.31
2018-10-18T00:33:44.334Z,35.31
2018-10-18T00:33:56.724Z,35.31
2018-10-18T00:34:09.146Z,35.31
2018-10-18T00:34:21.529Z,35.31
2018-10-18T00:34:33.910Z,35.31
2018-10-18T00:34:46.354Z,35.31
2018-10-18T00:34:58.750Z,35.31
2018-10-18T00:35:11.144Z,35.31
2018-10-18T00:35:23.535Z,35.31
2018-10-18T00:35:35.938Z,35.31
2018-10-18T00:35:48.329Z,35.31
2018-10-18T00:36:01.137Z,35.31
2018-10-18T00:36:14.971Z,35.31
2018-10-18T00:36:27.983Z,35.31
2018-10-18T00:36:40.366Z,35.31
2018-10-18T00:36:52.765Z,35.31
2018-10-18T00:37:05.214Z,35.31
2018-10-18T00:37:17.619Z,35.31
2018-10-18T00:37:30.027Z,35.31
2018-10-18T00:37:42.438Z,35.31
2018-10-18T00:37:54.928Z,35.31
2018-10-18T00:38:08.267Z,35.31
2018-10-18T00:38:22.128Z,35.31
2018-10-18T00:38:34.557Z,35.31
2018-10-18T00:38:46.959Z,35.31
2018-10-18T00:38:59.384Z,35.31
2018-10-18T00:39:11.790Z,35.31
2018-10-18T00:39:24.179Z,35.31
2018-10-18T00:39:37.180Z,35.31
2018-10-18T00:39:49.606Z,35.31
2018-10-18T00:40:01.993Z,35.31
2018-10-18T00:40:14.418Z,35.31
2018-10-18T00:40:26.860Z,35.31
2018-10-18T00:40:39.266Z,35.31
2018-10-18T00:40:51.856Z,35.31
2018-10-18T00:41:04.296Z,35.31
2018-10-18T00:41:16.708Z,35.31
2018-10-18T00:41:29.098Z,35.31
2018-10-18T00:41:41.513Z,35.31
2018-10-18T00:41:53.978Z,28.73
2018-10-18T00:42:07.394Z,28.73
2018-10-18T00:42:21.472Z,28.73
2018-10-18T00:42:33.883Z,28.73
2018-10-18T00:42:46.275Z,28.73
2018-10-18T00:42:58.717Z,28.73
2018-10-18T00:43:11.163Z,28.73
2018-10-18T00:43:23.557Z,28.73
2018-10-18T00:43:35.998Z,28.73
2018-10-18T00:43:48.416Z,28.73
2018-10-18T00:44:01.268Z,28.73
2018-10-18T00:44:15.449Z,28.73
2018-10-18T00:44:28.529Z,28.73
2018-10-18T00:44:40.962Z,28.73
2018-10-18T00:44:53.399Z,28.73
2018-10-18T00:45:05.838Z,28.73
2018-10-18T00:45:18.258Z,28.73
2018-10-18T00:45:30.677Z,28.73
2018-10-18T00:45:43.192Z,28.73
2018-10-18T00:45:55.753Z,28.73
2018-10-18T00:46:08.169Z,28.73
2018-10-18T00:46:20.596Z,28.73
2018-10-18T00:46:33.030Z,28.73
2018-10-18T00:46:45.448Z,28.73
2018-10-18T00:46:57.885Z,28.73
2018-10-18T00:47:10.294Z,28.73
2018-10-18T00:47:22.700Z,28.73
2018-10-18T00:47:35.118Z,28.73
2018-10-18T00:47:47.575Z,28.73
2018-10-18T00:48:00.295Z,28.73
2018-10-18T00:48:14.043Z,28.73
2018-10-18T00:48:27.029Z,28.73
2018-10-18T00:48:39.558Z,28.73
2018-10-18T00:48:51.969Z,28.73
2018-10-18T00:49:04.360Z,28.73
2018-10-18T00:49:16.761Z,28.73
2018-10-18T00:49:29.225Z,28.73
2018-10-18T00:49:41.767Z,28.73
2018-10-18T00:49:54.271Z,28.73
2018-10-18T00:50:07.490Z,28.73
2018-10-18T00:50:21.249Z,28.73
2018-10-18T00:50:33.657Z,28.73
2018-10-18T00:50:46.085Z,28.73
2018-10-18T00:50:58.515Z,28.73
2018-10-18T00:51:10.941Z,28.73
2018-10-18T00:51:23.384Z,28.73
2018-10-18T00:51:35.793Z,28.73
2018-10-18T00:51:48.191Z,30.71
2018-10-18T00:52:00.605Z,30.71
2018-10-18T00:52:13.008Z,30.71
2018-10-18T00:52:25.398Z,30.71
2018-10-18T00:52:37.805Z,30.71
2018-10-18T00:52:50.214Z,30.71
2018-10-18T00:53:02.635Z,30.71
2018-10-18T00:53:15.034Z,30.71
2018-10-18T00:53:27.435Z,30.71
2018-10-18T00:53:39.829Z,30.71
2018-10-18T00:53:52.250Z,30.71
2018-10-18T00:54:05.435Z,30.71
2018-10-18T00:54:19.503Z,30.71
2018-10-18T00:54:32.110Z,30.71
2018-10-18T00:54:44.518Z,30.71
2018-10-18T00:54:56.943Z,30.71
2018-10-18T00:55:09.342Z,30.71
2018-10-18T00:55:21.735Z,30.71
2018-10-18T00:55:34.129Z,30.71
2018-10-18T00:55:46.513Z,30.71
2018-10-18T00:55:59.138Z,30.71
2018-10-18T00:56:12.984Z,30.71
2018-10-18T00:56:26.155Z,30.71
2018-10-18T00:56:38.551Z,30.71
2018-10-18T00:56:50.948Z,30.71
2018-10-18T00:57:03.362Z,30.71
2018-10-18T00:57:15.771Z,30.71
2018-10-18T00:57:28.162Z,30.71
2018-10-18T00:57:40.558Z,30.71
2018-10-18T00:57:52.984Z,30.71
2018-10-18T00:58:05.389Z,30.71
2018-10-18T00:58:17.866Z,30.71
2018-10-18T00:58:30.269Z,30.71
2018-10-18T00:58:42.673Z,30.71
2018-10-18T00:58:55.075Z,30.71
2018-10-18T00:59:07.453Z,30.71
2018-10-18T00:59:19.878Z,30.71
2018-10-18T00:59:32.396Z,30.71
2018-10-18T00:59:44.798Z,30.71
2018-10-18T00:59:57.322Z,30.71
2018-10-18T01:00:11.103Z,30.71
2018-10-18T01:00:24.435Z,30.71
2018-10-18T01:00:36.856Z,30.71
2018-10-18T01:00:49.268Z,30.71
2018-10-18T01:01:01.664Z,30.71
2018-10-18T01:01:14.158Z,30.71
2018-10-18T01:01:26.569Z,30.71
2018-10-18T01:01:38.957Z,30.71
2018-10-18T01:01:51.677Z,32.4
2018-10-18T01:02:04.585Z,32.4
2018-10-18T01:02:18.691Z,32.4
2018-10-18T01:02:31.395Z,32.4
2018-10-18T01:02:43.818Z,32.4
2018-10-18T01:02:56.207Z,32.4
2018-10-18T01:03:08.649Z,32.4
2018-10-18T01:03:21.090Z,32.4
2018-10-18T01:03:33.490Z,32.4
2018-10-18T01:03:46.006Z,32.4
2018-10-18T01:03:58.409Z,32.4
2018-10-18T01:04:10.919Z,32.4
2018-10-18T01:04:23.399Z,32.4
2018-10-18T01:04:35.927Z,32.4
2018-10-18T01:04:48.402Z,32.4
2018-10-18T01:05:00.794Z,32.4
2018-10-18T01:05:13.178Z,32.4
2018-10-18T01:05:25.564Z,32.4
2018-10-18T01:05:37.964Z,32.4
2018-10-18T01:05:50.378Z,32.4
2018-10-18T01:06:03.317Z,32.4
2018-10-18T01:06:17.490Z,32.4
2018-10-18T01:06:30.350Z,32.4
2018-10-18T01:06:42.814Z,32.4
2018-10-18T01:06:55.277Z,32.4
2018-10-18T01:07:07.748Z,32.4
2018-10-18T01:07:20.207Z,32.4
2018-10-18T01:07:32.673Z,32.4
2018-10-18T01:07:45.123Z,32.4
2018-10-18T01:07:57.974Z,32.4
2018-10-18T01:08:11.422Z,32.4
2018-10-18T01:08:24.802Z,32.4
2018-10-18T01:08:37.265Z,32.4
2018-10-18T01:08:49.825Z,32.4
2018-10-18T01:09:02.205Z,32.4
2018-10-18T01:09:14.641Z,32.4
2018-10-18T01:09:27.104Z,32.4
2018-10-18T01:09:39.482Z,32.4
2018-10-18T01:09:51.876Z,32.4
2018-10-18T01:10:04.262Z,32.4
2018-10-18T01:10:16.674Z,32.4
2018-10-18T01:10:29.122Z,32.4
2018-10-18T01:10:41.595Z,32.4
2018-10-18T01:10:54.173Z,32.4
2018-10-18T01:11:06.651Z,32.4
2018-10-18T01:11:19.073Z,32.4
2018-10-18T01:11:31.448Z,32.4
2018-10-18T01:11:43.852Z,32.4
2018-10-18T01:11:56.685Z,28.47
2018-10-18T01:12:10.399Z,28.47
2018-10-18T01:12:25.818Z,28.47
2018-10-18T01:12:40.613Z,28.47
2018-10-18T01:12:53.968Z,28.47
2018-10-18T01:13:06.443Z,28.47
2018-10-18T01:13:18.828Z,28.47
2018-10-18T01:13:31.230Z,28.47
2018-10-18T01:13:43.644Z,28.47
2018-10-18T01:13:56.329Z,28.47
2018-10-18T01:14:09.916Z,28.47
2018-10-18T01:14:23.603Z,28.47
2018-10-18T01:14:36.038Z,28.47
2018-10-18T01:14:48.469Z,28.47
2018-10-18T01:15:00.886Z,28.47
2018-10-18T01:15:13.315Z,28.47
2018-10-18T01:15:25.754Z,28.47
2018-10-18T01:15:38.143Z,28.47
2018-10-18T01:15:50.556Z,28.47
2018-10-18T01:16:02.955Z,28.47
2018-10-18T01:16:15.346Z,28.47
2018-10-18T01:16:27.741Z,28.47
2018-10-18T01:16:40.145Z,28.47
2018-10-18T01:16:52.543Z,28.47
2018-10-18T01:17:04.952Z,28.47
2018-10-18T01:17:17.361Z,28.47
2018-10-18T01:17:29.961Z,28.47
2018-10-18T01:17:42.521Z,28.47
2018-10-18T01:17:55.079Z,28.47
2018-10-18T01:18:08.363Z,28.47
2018-10-18T01:18:21.981Z,28.47
2018-10-18T01:18:34.381Z,28.47
2018-10-18T01:18:46.794Z,28.47
2018-10-18T01:18:59.200Z,28.47
2018-10-18T01:19:11.710Z,28.47
2018-10-18T01:19:24.122Z,28.47
2018-10-18T01:19:36.558Z,28.47
2018-10-18T01:19:48.953Z,28.47
2018-10-18T01:20:01.766Z,28.47
2018-10-18T01:20:15.681Z,28.47
2018-10-18T01:20:28.669Z,28.47
2018-10-18T01:20:41.062Z,28.47
2018-10-18T01:20:53.463Z,28.47
2018-10-18T01:21:05.901Z,28.47
2018-10-18T01:21:18.294Z,28.47
2018-10-18T01:21:30.836Z,28.47
2018-10-18T01:21:43.241Z,28.47
2018-10-18T01:21:55.681Z,33.58
2018-10-18T01:22:08.353Z,33.58
2018-10-18T01:22:20.742Z,33.58
2018-10-18T01:22:33.134Z,33.58
2018-10-18T01:22:45.552Z,33.58
2018-10-18T01:22:58.110Z,33.58
2018-10-18T01:23:10.500Z,33.58
2018-10-18T01:23:22.870Z,33.58
2018-10-18T01:23:35.260Z,33.58
2018-10-18T01:23:47.661Z,33.58
2018-10-18T01:24:00.325Z,33.58
2018-10-18T01:24:13.822Z,33.58
2018-10-18T01:24:27.414Z,33.58
2018-10-18T01:24:39.826Z,33.58
2018-10-18T01:24:52.288Z,33.58
2018-10-18T01:25:04.714Z,33.58
2018-10-18T01:25:17.122Z,33.58
2018-10-18T01:25:29.633Z,33.58
2018-10-18T01:25:42.031Z,33.58
2018-10-18T01:25:54.473Z,33.58
2018-10-18T01:26:07.872Z,33.58
2018-10-18T01:26:21.898Z,33.58
2018-10-18T01:26:34.312Z,33.58
2018-10-18T01:26:46.727Z,33.58
2018-10-18T01:26:59.119Z,33.58
2018-10-18T01:27:11.655Z,33.58
2018-10-18T01:27:24.046Z,33.58
2018-10-18T01:27:36.476Z,33.58
2018-10-18T01:27:48.870Z,33.58
2018-10-18T01:28:01.268Z,33.58
2018-10-18T01:28:13.663Z,33.58
2018-10-18T01:28:26.063Z,33.58
2018-10-18T01:28:38.474Z,33.58
2018-10-18T01:28:50.893Z,33.58
2018-10-18T01:29:03.283Z,33.58
2018-10-18T01:29:15.666Z,33.58
2018-10-18T01:29:28.046Z,33.58
2018-10-18T01:29:40.611Z,33.58
2018-10-18T01:29:53.093Z,33.58
2018-10-18T01:30:06.271Z,33.58
2018-10-18T01:30:20.186Z,33.58
2018-10-18T01:30:32.597Z,33.58
2018-10-18T01:30:45.020Z,33.58
2018-10-18T01:30:57.430Z,33.58
2018-10-18T01:31:10.030Z,33.58
2018-10-18T01:31:22.435Z,33.58
2018-10-18T01:31:34.821Z,33.58
2018-10-18T01:31:47.326Z,29.35
2018-10-18T01:32:00.051Z,29.35
2018-10-18T01:32:13.803Z,29.35
2018-10-18T01:32:27.358Z,29.35
2018-10-18T01:32:39.762Z,29.35
2018-10-18T01:32:52.166Z,29.35
2018-10-18T01:33:04.582Z,29.35
2018-10-18T01:33:17.022Z,29.35
2018-10-18T01:33:29.449Z,29.35
2018-10-18T01:33:41.861Z,29.35
2018-10-18T01:33:54.270Z,29.35
2018-10-18T01:34:06.691Z,29.35
2018-10-18T01:34:19.098Z,29.35
2018-10-18T01:34:31.515Z,29.35
2018-10-18T01:34:43.926Z,29.35
2018-10-18T01:34:56.357Z,29.35
2018-10-18T01:35:08.781Z,29.35
2018-10-18T01:35:21.194Z,29.35
2018-10-18T01:35:33.611Z,29.35
2018-10-18T01:35:46.005Z,29.35
2018-10-18T01:35:58.705Z,29.35
2018-10-18T01:36:12.346Z,29.35
2018-10-18T01:36:25.552Z,29.35
2018-10-18T01:36:37.966Z,29.35
2018-10-18T01:36:50.427Z,29.35
2018-10-18T01:37:02.821Z,29.35
2018-10-18T01:37:15.212Z,29.35
2018-10-18T01:37:27.792Z,29.35
2018-10-18T01:37:40.177Z,29.35
2018-10-18T01:37:52.627Z,29.35
2018-10-18T01:38:05.761Z,29.35
2018-10-18T01:38:19.844Z,29.35
2018-10-18T01:38:32.231Z,29.35
2018-10-18T01:38:44.654Z,29.35
2018-10-18T01:38:57.066Z,29.35
2018-10-18T01:39:09.451Z,29.35
2018-10-18T01:39:21.873Z,29.35
2018-10-18T01:39:34.396Z,29.35
2018-10-18T01:39:46.783Z,29.35
2018-10-18T01:39:59.199Z,29.35
2018-10-18T01:40:11.611Z,29.35
2018-10-18T01:40:24.028Z,29.35
2018-10-18T01:40:36.405Z,29.35
2018-10-18T01:40:48.815Z,29.35
2018-10-18T01:41:01.246Z,29.35
2018-10-18T01:41:13.860Z,29.35
2018-10-18T01:41:26.255Z,29.35
2018-10-18T01:41:38.641Z,29.35
2018-10-18T01:41:51.064Z,34.87
2018-10-18T01:42:04.058Z,34.87
2018-10-18T01:42:18.238Z,34.87
2018-10-18T01:42:31.172Z,34.87
2018-10-18T01:42:43.584Z,34.87
2018-10-18T01:42:55.977Z,34.87
2018-10-18T01:43:08.387Z,34.87
2018-10-18T01:43:20.789Z,34.87
2018-10-18T01:43:33.181Z,34.87
2018-10-18T01:43:45.611Z,34.87
2018-10-18T01:43:58.368Z,34.87
2018-10-18T01:44:11.977Z,34.87
2018-10-18T01:44:25.083Z,34.87
2018-10-18T01:44:37.495Z,34.87
2018-10-18T01:44:49.892Z,34.87
2018-10-18T01:45:02.342Z,34.87
2018-10-18T01:45:14.719Z,34.87
2018-10-18T01:45:27.109Z,34.87
2018-10-18T01:45:39.683Z,34.87
2018-10-18T01:45:52.407Z,34.87
2018-10-18T01:46:04.813Z,34.87
2018-10-18T01:46:17.296Z,34.87
2018-10-18T01:46:29.676Z,34.87
2018-10-18T01:46:42.097Z,34.87
2018-10-18T01:46:54.489Z,34.87
2018-10-18T01:47:06.928Z,34.87
2018-10-18T01:47:19.319Z,34.87
2018-10-18T01:47:31.711Z,34.87
2018-10-18T01:47:44.125Z,34.87
2018-10-18T01:47:56.760Z,34.87
2018-10-18T01:48:10.503Z,34.87
2018-10-18T01:48:23.756Z,34.87
2018-10-18T01:48:36.164Z,34.87
2018-10-18T01:48:48.557Z,34.87
2018-10-18T01:49:00.945Z,34.87
2018-10-18T01:49:13.348Z,34.87
2018-10-18T01:49:25.732Z,34.87
2018-10-18T01:49:38.261Z,34.87
2018-10-18T01:49:50.655Z,34.87
2018-10-18T01:50:03.671Z,34.87
2018-10-18T01:50:17.767Z,34.87
2018-10-18T01:50:30.469Z,34.87
2018-10-18T01:50:42.869Z,34.87
2018-10-18T01:50:55.275Z,34.87
2018-10-18T01:51:07.756Z,34.87
2018-10-18T01:51:20.152Z,34.87
2018-10-18T01:51:32.566Z,34.87
2018-10-18T01:51:44.977Z,34.87
2018-10-18T01:51:57.385Z,31.25
2018-10-18T01:52:09.799Z,31.25
2018-10-18T01:52:22.201Z,31.25
2018-10-18T01:52:34.604Z,31.25
2018-10-18T01:52:47.021Z,31.25
2018-10-18T01:52:59.422Z,31.25
2018-10-18T01:53:11.825Z,31.25
2018-10-18T01:53:24.208Z,31.25
2018-10-18T01:53:36.603Z,31.25
2018-10-18T01:53:49.012Z,31.25
2018-10-18T01:54:01.936Z,31.25
2018-10-18T01:54:16.035Z,31.25
2018-10-18T01:54:29.090Z,31.25
2018-10-18T01:54:41.482Z,31.25
2018-10-18T01:54:53.900Z,31.25
2018-10-18T01:55:06.304Z,31.25
2018-10-18T01:55:18.718Z,31.25
2018-10-18T01:55:31.130Z,31.25
2018-10-18T01:55:43.535Z,31.25
2018-10-18T01:55:56.078Z,31.25
2018-10-18T01:56:09.540Z,31.25
2018-10-18T01:56:23.235Z,31.25
2018-10-18T01:56:35.625Z,31.25
2018-10-18T01:56:48.029Z,31.25
2018-10-18T01:57:00.413Z,31.25
2018-10-18T01:57:12.806Z,31.25
2018-10-18T01:57:25.209Z,31.25
2018-10-18T01:57:37.586Z,31.25
2018-10-18T01:57:49.991Z,31.25
2018-10-18T01:58:02.375Z,31.25
2018-10-18T01:58:14.777Z,31.25
2018-10-18T01:58:27.160Z,31.25
2018-10-18T01:58:39.559Z,31.25
2018-10-18T01:58:51.989Z,31.25
2018-10-18T01:59:04.391Z,31.25
2018-10-18T01:59:16.786Z,31.25
2018-10-18T01:59:29.276Z,31.25
2018-10-18T01:59:41.651Z,31.25
2018-10-18T01:59:54.140Z,31.25
2018-10-18T02:00:07.730Z,31.25
2018-10-18T02:00:21.767Z,31.25
2018-10-18T02:00:34.195Z,31.25
2018-10-18T02:00:46.605Z,31.25
2018-10-18T02:00:59.022Z,31.25
2018-10-18T02:01:11.599Z,31.25
2018-10-18T02:01:24.032Z,31.25
2018-10-18T02:01:36.448Z,31.25
2018-10-18T02:01:48.938Z,32.1
2018-10-18T02:02:01.712Z,32.1
2018-10-18T02:02:15.629Z,32.1
2018-10-18T02:02:28.464Z,32.1
2018-10-18T02:02:40.860Z,32.1
2018-10-18T02:02:53.249Z,32.1
2018-10-18T02:03:05.648Z,32.1
2018-10-18T02:03:18.089Z,32.1
2018-10-18T02:03:30.486Z,32.1
2018-10-18T02:03:42.885Z,32.1
2018-10-18T02:03:55.275Z,32.1
2018-10-18T02:04:07.834Z,32.1
2018-10-18T02:04:20.313Z,32.1
2018-10-18T02:04:32.723Z,32.1
2018-10-18T02:04:45.123Z,32.1
2018-10-18T02:04:57.529Z,32.1
2018-10-18T02:05:09.953Z,32.1
2018-10-18T02:05:22.355Z,32.1
2018-10-18T02:05:34.750Z,32.1
2018-10-18T02:05:47.149Z,32.1
2018-10-18T02:05:59.831Z,32.1
2018-10-18T02:06:13.629Z,32.1
2018-10-18T02:06:26.754Z,32.1
2018-10-18T02:06:39.143Z,32.1
2018-10-18T02:06:51.532Z,32.1
2018-10-18T02:07:03.910Z,32.1
2018-10-18T02:07:16.305Z,32.1
2018-10-18T02:07:28.700Z,32.1
2018-10-18T02:07:41.102Z,32.1
2018-10-18T02:07:53.621Z,32.1
2018-10-18T02:08:06.991Z,32.1
2018-10-18T02:08:20.964Z,32.1
2018-10-18T02:08:33.367Z,32.1
2018-10-18T02:08:45.842Z,32.1
2018-10-18T02:08:58.244Z,32.1
2018-10-18T02:09:10.668Z,32.1
2018-10-18T02:09:23.071Z,32.1
2018-10-18T02:09:35.480Z,32.1
2018-10-18T02:09:47.879Z,32.1
2018-10-18T02:10:00.268Z,32.1
2018-10-18T02:10:12.679Z,32.1
2018-10-18T02:10:25.077Z,32.1
2018-10-18T02:10:37.479Z,32.1
2018-10-18T02:10:49.895Z,32.1
2018-10-18T02:11:02.314Z,32.1
2018-10-18T02:11:14.749Z,32.1
2018-10-18T02:11:27.197Z,32.1
2018-10-18T02:11:39.603Z,32.1
2018-10-18T02:11:52.058Z,32.03
2018-10-18T02:12:05.075Z,32.03
2018-10-18T02:12:18.980Z,32.03
2018-10-18T02:12:31.386Z,32.03
2018-10-18T02:12:43.885Z,32.03
2018-10-18T02:12:56.299Z,32.03
2018-10-18T02:13:08.850Z,32.03
2018-10-18T02:13:21.250Z,32.03
2018-10-18T02:13:34.116Z,32.03
2018-10-18T02:13:48.135Z,32.03
2018-10-18T02:14:00.805Z,32.03
2018-10-18T02:14:13.236Z,32.03
2018-10-18T02:14:25.623Z,32.03
2018-10-18T02:14:38.045Z,32.03
2018-10-18T02:14:50.454Z,32.03
2018-10-18T02:15:02.855Z,32.03
2018-10-18T02:15:15.269Z,32.03
2018-10-18T02:15:27.684Z,32.03
2018-10-18T02:15:40.095Z,32.03
2018-10-18T02:15:52.517Z,32.03
2018-10-18T02:16:05.268Z,32.03
2018-10-18T02:16:17.662Z,32.03
2018-10-18T02:16:30.151Z,32.03
2018-10-18T02:16:42.546Z,32.03
2018-10-18T02:16:54.934Z,32.03
2018-10-18T02:17:07.395Z,32.03
2018-10-18T02:17:19.794Z,32.03
2018-10-18T02:17:32.411Z,32.03
2018-10-18T02:17:45.024Z,32.03
2018-10-18T02:17:57.649Z,32.03
2018-10-18T02:18:11.204Z,32.03
2018-10-18T02:18:25.131Z,32.03
2018-10-18T02:18:37.540Z,32.03
2018-10-18T02:18:49.949Z,32.03
2018-10-18T02:19:02.969Z,32.03
2018-10-18T02:19:16.986Z,32.03
2018-10-18T02:19:30.036Z,32.03
2018-10-18T02:19:42.440Z,32.03
2018-10-18T02:19:54.846Z,32.03
2018-10-18T02:20:07.288Z,32.03
2018-10-18T02:20:19.740Z,32.03
2018-10-18T02:20:32.186Z,32.03
2018-10-18T02:20:44.583Z,32.03
2018-10-18T02:20:56.966Z,32.03
2018-10-18T02:21:09.367Z,32.03
2018-10-18T02:21:21.771Z,32.03
2018-10-18T02:21:34.346Z,32.03
2018-10-18T02:21:46.751Z,32.03
2018-10-18T02:21:59.176Z,30.9
2018-10-18T02:22:11.901Z,30.9
2018-10-18T02:22:24.299Z,30.9
2018-10-18T02:22:36.722Z,30.9
2018-10-18T02:22:49.293Z,30.9
2018-10-18T02:23:01.694Z,30.9
2018-10-18T02:23:14.249Z,30.9
2018-10-18T02:23:26.628Z,30.9
2018-10-18T02:23:39.022Z,30.9
2018-10-18T02:23:51.416Z,30.9
2018-10-18T02:24:04.639Z,30.9
2018-10-18T02:24:18.605Z,30.9
2018-10-18T02:24:31.111Z,30.9
2018-10-18T02:24:43.547Z,30.9
2018-10-18T02:24:56.198Z,30.9
2018-10-18T02:25:09.722Z,30.9
2018-10-18T02:25:23.493Z,30.9
2018-10-18T02:25:36.712Z,30.9
2018-10-18T02:25:49.101Z,30.9
2018-10-18T02:26:01.503Z,30.9
2018-10-18T02:26:13.929Z,30.9
2018-10-18T02:26:26.323Z,30.9
2018-10-18T02:26:38.721Z,30.9
2018-10-18T02:26:51.132Z,30.9
2018-10-18T02:27:03.528Z,30.9
2018-10-18T02:27:16.065Z,30.9
2018-10-18T02:27:28.456Z,30.9
2018-10-18T02:27:40.858Z,30.9
2018-10-18T02:27:53.257Z,30.9
2018-10-18T02:28:05.647Z,30.9
2018-10-18T02:28:18.062Z,30.9
2018-10-18T02:28:30.464Z,30.9
2018-10-18T02:28:42.867Z,30.9
2018-10-18T02:28:55.310Z,30.9
2018-10-18T02:29:07.694Z,30.9
2018-10-18T02:29:20.110Z,30.9
2018-10-18T02:29:32.503Z,30.9
2018-10-18T02:29:44.898Z,30.9
2018-10-18T02:29:57.598Z,30.9
2018-10-18T02:30:11.015Z,30.9
2018-10-18T02:30:25.141Z,30.9
2018-10-18T02:30:37.591Z,30.9
2018-10-18T02:30:50.030Z,30.9
2018-10-18T02:31:02.442Z,30.9
2018-10-18T02:31:14.826Z,30.9
2018-10-18T02:31:27.257Z,30.9
2018-10-18T02:31:39.801Z,30.9
2018-10-18T02:31:52.350Z,31.95
2018-10-18T02:32:04.790Z,31.95
2018-10-18T02:32:17.200Z,31.95
2018-10-18T02:32:29.598Z,31.95
2018-10-18T02:32:42.057Z,31.95
2018-10-18T02:32:54.490Z,31.95
2018-10-18T02:33:06.934Z,31.95
2018-10-18T02:33:19.394Z,31.95
2018-10-18T02:33:31.796Z,31.95
2018-10-18T02:33:44.200Z,31.95
2018-10-18T02:33:56.609Z,31.95
2018-10-18T02:34:09.032Z,31.95
2018-10-18T02:34:21.453Z,31.95
2018-10-18T02:34:33.863Z,31.95
2018-10-18T02:34:46.277Z,31.95
2018-10-18T02:34:58.688Z,31.95
2018-10-18T02:35:11.110Z,31.95
2018-10-18T02:35:23.552Z,31.95
2018-10-18T02:35:35.952Z,31.95
2018-10-18T02:35:48.357Z,31.95
2018-10-18T02:36:01.235Z,31.95
2018-10-18T02:36:14.963Z,31.95
2018-10-18T02:36:28.516Z,31.95
2018-10-18T02:36:40.951Z,31.95
2018-10-18T02:36:53.381Z,31.95
2018-10-18T02:37:05.780Z,31.95
2018-10-18T02:37:18.177Z,31.95
2018-10-18T02:37:30.590Z,31.95
2018-10-18T02:37:43.023Z,31.95
2018-10-18T02:37:55.439Z,31.95
2018-10-18T02:38:07.891Z,31.95
2018-10-18T02:38:20.333Z,31.95
2018-10-18T02:38:32.744Z,31.95
2018-10-18T02:38:45.182Z,31.95
2018-10-18T02:38:57.580Z,31.95
2018-10-18T02:39:10.010Z,31.95
2018-10-18T02:39:22.415Z,31.95
2018-10-18T02:39:34.926Z,31.95
2018-10-18T02:39:47.322Z,31.95
2018-10-18T02:39:59.725Z,31.95
2018-10-18T02:40:12.161Z,31.95
2018-10-18T02:40:24.561Z,31.95
2018-10-18T02:40:37.041Z,31.95
2018-10-18T02:40:49.465Z,31.95
2018-10-18T02:41:02.022Z,31.95
2018-10-18T02:41:14.403Z,31.95
2018-10-18T02:41:26.841Z,31.95
2018-10-18T02:41:39.243Z,31.95
2018-10-18T02:41:51.636Z,32.22
2018-10-18T02:42:05.063Z,32.22
2018-10-18T02:42:19.287Z,32.22
2018-10-18T02:42:31.966Z,32.22
2018-10-18T02:42:44.385Z,32.22
2018-10-18T02:42:56.819Z,32.22
2018-10-18T02:43:09.261Z,32.22
2018-10-18T02:43:21.663Z,32.22